KFAT

Fresno Yosemite International Airport

Fresno, California, USA
KFAT 181720Z 1818/1918 31007KT P6SM SKC
Issued Valid From Valid To
Sep-18 @ 17:20 UTC
(56 minutes ago)
Sep-18 @ 18:00 UTC
(16 minutes ago)
Sep-19 @ 18:00 UTC
(in 24 hours)
Sep-18 @ 18:00 to Sep-19 @ 18:00
KFAT 181720Z 1818/1918 31007KT P6SM SKC
Wind Visibility Clouds
310° at 7 knots Greater than 6 miles
  • Clear skies
KFAT 181720Z 1818/1918 31007KT P6SM SKC
Issued Sep-18 @ 17:20 UTC
(56 minutes ago)
Valid From Sep-18 @ 18:00 UTC
(16 minutes ago)
Valid To Sep-19 @ 18:00 UTC
(in 24 hours)
Sep-18 @ 18:00 - Sep-19 @ 18:00
Wind Visibility
310° at 7 knots Greater than 6 miles
Clouds
  • Clear skies